createdAt,value
2023-03-12T00:00:04.534Z,-1.46
2023-03-12T00:02:31.033Z,-1.49
2023-03-12T00:04:59.874Z,-1.46
2023-03-12T00:07:26.387Z,-1.50
2023-03-12T00:09:52.956Z,-1.52
2023-03-12T00:12:19.307Z,-1.41
2023-03-12T00:14:45.826Z,-1.42
2023-03-12T00:17:15.458Z,-1.44
2023-03-12T00:19:41.866Z,-1.50
2023-03-12T00:22:08.543Z,-1.48
2023-03-12T00:24:34.945Z,-1.52
2023-03-12T00:27:01.372Z,-1.48
2023-03-12T00:29:27.924Z,-1.51
2023-03-12T00:31:54.622Z,-1.53
2023-03-12T00:34:21.053Z,-1.54
2023-03-12T00:36:47.535Z,-1.58
2023-03-12T00:39:16.357Z,-1.58
2023-03-12T00:41:42.911Z,-1.65
2023-03-12T00:44:11.636Z,-1.66
2023-03-12T00:46:38.187Z,-1.69
2023-03-12T00:49:04.857Z,-1.67
2023-03-12T00:51:31.712Z,-1.73
2023-03-12T00:53:58.196Z,-1.72
2023-03-12T00:56:24.569Z,-1.69
2023-03-12T00:58:50.983Z,-1.71
2023-03-12T01:01:17.757Z,-1.75
2023-03-12T01:03:44.321Z,-1.72
2023-03-12T01:06:10.954Z,-1.67
2023-03-12T01:08:37.985Z,-1.65
2023-03-12T01:11:04.770Z,-1.59
2023-03-12T01:13:31.397Z,-1.49
2023-03-12T01:16:00.223Z,-1.42
2023-03-12T01:18:26.896Z,-1.32
2023-03-12T01:20:53.973Z,-1.27
2023-03-12T01:23:22.689Z,-1.20
2023-03-12T01:25:49.465Z,-1.11
2023-03-12T01:28:18.212Z,-1.05
2023-03-12T01:30:44.980Z,-1.03
2023-03-12T01:33:11.404Z,-0.94
2023-03-12T01:35:39.494Z,-0.89
2023-03-12T01:38:14.252Z,-0.83
2023-03-12T01:40:42.859Z,-0.80
2023-03-12T01:43:37.000Z,-0.73
2023-03-12T01:46:28.038Z,-0.72
2023-03-12T01:49:11.503Z,-0.67
2023-03-12T01:51:52.487Z,-0.70
2023-03-12T01:54:32.523Z,-0.69
2023-03-12T01:57:00.572Z,-0.72
2023-03-12T01:59:37.146Z,-0.78
2023-03-12T02:02:05.417Z,-0.79
2023-03-12T02:04:33.463Z,-0.83
2023-03-12T02:07:12.819Z,-0.85
2023-03-12T02:09:43.555Z,-0.89
2023-03-12T02:12:10.228Z,-0.91
2023-03-12T02:14:37.735Z,-0.91
2023-03-12T02:17:05.224Z,-0.91
2023-03-12T02:19:45.009Z,-0.91
2023-03-12T02:22:15.232Z,-0.92
2023-03-12T02:24:57.293Z,-0.89
2023-03-12T02:27:26.320Z,-0.84
2023-03-12T02:29:52.780Z,-0.76
2023-03-12T02:32:29.468Z,-0.72
2023-03-12T02:34:57.280Z,-0.70
2023-03-12T02:37:23.627Z,-0.63
2023-03-12T02:39:58.148Z,-0.60
2023-03-12T02:42:24.925Z,-0.55
2023-03-12T02:44:51.466Z,-0.50
2023-03-12T02:47:18.113Z,-0.45
2023-03-12T02:49:44.598Z,-0.42
2023-03-12T02:52:10.968Z,-0.37
2023-03-12T02:54:37.817Z,-0.39
2023-03-12T02:57:04.349Z,-0.36
2023-03-12T02:59:31.092Z,-0.35
2023-03-12T03:02:00.299Z,-0.32
2023-03-12T03:04:27.958Z,-0.28
2023-03-12T03:06:54.613Z,-0.25
2023-03-12T03:09:22.473Z,-0.19
2023-03-12T03:11:50.604Z,-0.14
2023-03-12T03:14:17.463Z,-0.13
2023-03-12T03:16:44.027Z,-0.10
2023-03-12T03:19:11.410Z,-0.03
2023-03-12T03:21:37.980Z,-0.01
2023-03-12T03:24:05.071Z,0.02
2023-03-12T03:26:31.544Z,0.02
2023-03-12T03:28:58.021Z,0.07
2023-03-12T03:31:27.196Z,0.11
2023-03-12T03:33:53.711Z,0.15
2023-03-12T03:36:20.308Z,0.20
2023-03-12T03:38:49.439Z,0.23
2023-03-12T03:41:17.690Z,0.29
2023-03-12T03:43:46.738Z,0.36
2023-03-12T03:46:14.593Z,0.43
2023-03-12T03:48:42.364Z,0.46
2023-03-12T03:51:10.581Z,0.50
2023-03-12T03:53:37.055Z,0.55
2023-03-12T03:56:16.730Z,0.61
2023-03-12T03:58:44.160Z,0.63
2023-03-12T04:01:12.647Z,0.67
2023-03-12T04:03:41.513Z,0.68
2023-03-12T04:06:08.578Z,0.71
2023-03-12T04:08:37.203Z,0.76
2023-03-12T04:11:08.876Z,0.80
2023-03-12T04:13:35.752Z,0.80
2023-03-12T04:16:02.326Z,0.86
2023-03-12T04:18:32.273Z,0.90
2023-03-12T04:20:58.741Z,0.93
2023-03-12T04:23:25.129Z,0.98
2023-03-12T04:25:51.545Z,1.03
2023-03-12T04:28:17.971Z,1.06
2023-03-12T04:30:44.378Z,1.10
2023-03-12T04:33:11.007Z,1.16
2023-03-12T04:35:39.818Z,1.21
2023-03-12T04:38:06.195Z,1.27
2023-03-12T04:40:32.680Z,1.30
2023-03-12T04:42:59.232Z,1.38
2023-03-12T04:45:25.809Z,1.43
2023-03-12T04:47:57.705Z,1.49
2023-03-12T04:50:24.230Z,1.54
2023-03-12T04:52:50.721Z,1.60
2023-03-12T04:55:17.126Z,1.63
2023-03-12T04:57:43.648Z,1.67
2023-03-12T05:00:13.060Z,1.70
2023-03-12T05:02:41.104Z,1.70
2023-03-12T05:05:10.772Z,1.75
2023-03-12T05:07:37.259Z,1.71
2023-03-12T05:10:04.293Z,1.76
2023-03-12T05:12:30.745Z,1.75
2023-03-12T05:14:59.705Z,1.78
2023-03-12T05:17:26.077Z,1.76
2023-03-12T05:19:52.650Z,1.76
2023-03-12T05:22:19.057Z,1.78
2023-03-12T05:24:45.486Z,1.78
2023-03-12T05:27:11.932Z,1.76
2023-03-12T05:29:38.818Z,1.74
2023-03-12T05:32:07.501Z,1.78
2023-03-12T05:34:34.804Z,1.75
2023-03-12T05:37:01.290Z,1.79
2023-03-12T05:39:27.741Z,1.75
2023-03-12T05:41:56.983Z,1.77
2023-03-12T05:44:24.734Z,1.75
2023-03-12T05:46:52.233Z,1.72
2023-03-12T05:49:19.607Z,1.76
2023-03-12T05:51:50.542Z,1.75
2023-03-12T05:54:17.661Z,1.80
2023-03-12T05:56:46.459Z,1.74
2023-03-12T05:59:12.983Z,1.75
2023-03-12T06:01:42.424Z,1.78
2023-03-12T06:04:08.831Z,1.79
2023-03-12T06:06:39.088Z,1.79
2023-03-12T06:09:05.823Z,1.78
2023-03-12T06:11:34.615Z,1.74
2023-03-12T06:14:01.497Z,1.78
2023-03-12T06:16:30.959Z,1.79
2023-03-12T06:19:00.623Z,1.84
2023-03-12T06:21:32.896Z,1.83
2023-03-12T06:24:03.268Z,1.82
2023-03-12T06:26:30.275Z,1.85
2023-03-12T06:28:57.123Z,1.87
2023-03-12T06:31:24.564Z,1.87
2023-03-12T06:33:53.892Z,1.87
2023-03-12T06:36:25.525Z,1.89
2023-03-12T06:38:52.127Z,1.91
2023-03-12T06:41:20.506Z,1.87
2023-03-12T06:43:48.184Z,1.90
2023-03-12T06:46:17.552Z,1.92
2023-03-12T06:48:46.184Z,1.95
2023-03-12T06:51:14.685Z,1.99
2023-03-12T06:53:42.638Z,2.03
2023-03-12T06:56:10.286Z,2.06
2023-03-12T06:58:36.965Z,2.03
2023-03-12T07:01:04.555Z,2.08
2023-03-12T07:03:31.182Z,2.12
2023-03-12T07:06:01.082Z,2.15
2023-03-12T07:08:31.149Z,2.17
2023-03-12T07:11:01.620Z,2.20
2023-03-12T07:13:28.811Z,2.23
2023-03-12T07:15:55.291Z,2.25
2023-03-12T07:18:21.769Z,2.31
2023-03-12T07:20:48.353Z,2.36
2023-03-12T07:23:17.107Z,2.38
2023-03-12T07:25:44.612Z,2.43
2023-03-12T07:28:12.384Z,2.50
2023-03-12T07:30:39.318Z,2.63
2023-03-12T07:33:10.284Z,2.64
2023-03-12T07:35:38.856Z,2.60
2023-03-12T07:38:06.028Z,2.63
2023-03-12T07:40:32.645Z,2.62
2023-03-12T07:42:59.264Z,2.63
2023-03-12T07:45:25.908Z,2.66
2023-03-12T07:47:52.557Z,2.65
2023-03-12T07:50:20.039Z,2.67
2023-03-12T07:52:47.096Z,2.70
2023-03-12T07:55:14.135Z,2.79
2023-03-12T07:57:40.827Z,2.87
2023-03-12T08:00:10.316Z,2.89
2023-03-12T08:02:39.198Z,2.91
2023-03-12T08:05:06.507Z,2.99
2023-03-12T08:07:35.926Z,3.00
2023-03-12T08:10:04.549Z,3.02
2023-03-12T08:12:31.561Z,3.01
2023-03-12T08:14:57.960Z,3.04
2023-03-12T08:17:24.880Z,3.08
2023-03-12T08:19:51.689Z,3.16
2023-03-12T08:22:18.177Z,3.22
2023-03-12T08:24:46.909Z,3.29
2023-03-12T08:27:13.777Z,3.30
2023-03-12T08:29:40.989Z,3.35
2023-03-12T08:32:08.222Z,3.34
2023-03-12T08:34:35.494Z,3.36
2023-03-12T08:37:02.955Z,3.34
2023-03-12T08:39:29.675Z,3.41
2023-03-12T08:41:56.155Z,3.40
2023-03-12T08:44:23.619Z,3.55
2023-03-12T08:46:52.848Z,3.50
2023-03-12T08:49:20.534Z,3.57
2023-03-12T08:51:47.902Z,3.58
2023-03-12T08:54:14.537Z,3.57
2023-03-12T08:56:43.904Z,3.64
2023-03-12T08:59:11.561Z,3.73
2023-03-12T09:01:38.337Z,3.65
2023-03-12T09:04:06.258Z,3.69
2023-03-12T09:06:35.249Z,3.77
2023-03-12T09:09:05.088Z,3.90
2023-03-12T09:11:33.903Z,4.07
2023-03-12T09:16:48.283Z,4.20
2023-03-12T09:19:15.798Z,4.34
2023-03-12T09:21:42.363Z,4.39
2023-03-12T09:24:10.517Z,4.38
2023-03-12T09:26:36.920Z,4.29
2023-03-12T09:29:03.410Z,4.28
2023-03-12T09:31:29.883Z,4.34
2023-03-12T09:33:56.305Z,4.34
2023-03-12T09:36:23.123Z,4.38
2023-03-12T09:38:49.632Z,4.35
2023-03-12T09:41:21.101Z,4.36
2023-03-12T09:44:02.291Z,4.47
2023-03-12T09:46:48.904Z,4.45
2023-03-12T09:49:27.233Z,4.50
2023-03-12T09:51:57.120Z,4.57
2023-03-12T09:54:45.852Z,4.67
2023-03-12T09:57:21.702Z,4.66
2023-03-12T09:59:48.251Z,4.87
2023-03-12T10:02:53.090Z,5.05
2023-03-12T10:05:39.663Z,5.11
2023-03-12T10:08:35.817Z,5.09
2023-03-12T10:11:18.501Z,5.09
2023-03-12T10:13:53.868Z,5.29
2023-03-12T10:16:40.248Z,5.53
2023-03-12T10:19:28.065Z,5.58
2023-03-12T10:21:57.489Z,5.72
2023-03-12T10:24:39.148Z,5.74
2023-03-12T10:27:13.468Z,5.82
2023-03-12T10:29:44.908Z,5.91
2023-03-12T10:32:16.643Z,6.02
2023-03-12T10:34:45.787Z,6.29
2023-03-12T10:37:21.614Z,6.35
2023-03-12T10:39:51.695Z,6.65
2023-03-12T10:42:21.285Z,6.90
2023-03-12T10:44:52.203Z,7.10
2023-03-12T10:47:37.989Z,7.10
2023-03-12T10:50:45.948Z,7.15
2023-03-12T10:53:12.696Z,7.40
2023-03-12T10:55:39.744Z,7.57
2023-03-12T10:58:06.267Z,7.68
2023-03-12T11:00:33.644Z,7.50
2023-03-12T11:03:08.134Z,7.60
2023-03-12T11:05:45.785Z,7.46
2023-03-12T11:08:32.175Z,7.39
2023-03-12T11:11:00.588Z,7.51
2023-03-12T11:13:33.213Z,7.59
2023-03-12T11:16:02.888Z,7.84
2023-03-12T11:18:32.560Z,7.92
2023-03-12T11:21:14.962Z,7.90
2023-03-12T11:24:08.377Z,7.88
2023-03-12T11:26:44.731Z,7.80
2023-03-12T11:29:33.252Z,7.98
2023-03-12T11:32:26.276Z,8.07
2023-03-12T11:34:53.075Z,8.49
2023-03-12T11:37:53.773Z,8.90
2023-03-12T11:40:26.328Z,8.92
2023-03-12T11:43:09.044Z,8.92
2023-03-12T11:46:08.607Z,9.18
2023-03-12T11:48:45.939Z,9.31
2023-03-12T11:51:33.524Z,9.46
2023-03-12T11:54:55.827Z,9.87
2023-03-12T11:57:27.222Z,10.40
2023-03-12T12:00:13.140Z,10.23
2023-03-12T12:02:54.919Z,10.85
2023-03-12T12:05:36.568Z,11.20
2023-03-12T12:08:39.094Z,11.41
2023-03-12T12:11:08.312Z,11.31
2023-03-12T12:13:59.690Z,11.68
2023-03-12T12:17:17.341Z,11.73
2023-03-12T12:20:01.390Z,11.98
2023-03-12T12:22:50.025Z,11.55
2023-03-12T12:25:46.666Z,11.82
2023-03-12T12:28:26.807Z,12.12
2023-03-12T12:31:19.496Z,12.04
2023-03-12T12:33:56.100Z,12.32
2023-03-12T12:36:27.339Z,12.22
2023-03-12T12:39:01.377Z,12.31
2023-03-12T12:41:37.316Z,12.54
2023-03-12T12:44:14.058Z,12.82
2023-03-12T12:46:47.829Z,12.81
2023-03-12T12:49:17.504Z,12.96
2023-03-12T12:51:50.668Z,12.99
2023-03-12T12:54:47.997Z,12.95
2023-03-12T12:57:22.515Z,12.73
2023-03-12T13:00:07.477Z,12.71
2023-03-12T13:02:39.628Z,12.76
2023-03-12T13:05:20.181Z,12.87
2023-03-12T13:07:46.656Z,12.92
2023-03-12T13:10:33.268Z,12.71
2023-03-12T13:13:04.292Z,12.77
2023-03-12T13:15:32.838Z,12.88
2023-03-12T13:17:59.299Z,13.00
2023-03-12T13:20:50.259Z,12.90
2023-03-12T13:23:44.826Z,12.81
2023-03-12T13:26:27.636Z,12.91
2023-03-12T13:29:12.391Z,12.89
2023-03-12T13:31:40.844Z,12.97
2023-03-12T13:34:19.426Z,13.49
2023-03-12T13:36:51.848Z,13.95
2023-03-12T13:39:28.465Z,14.20
2023-03-12T13:41:55.973Z,14.28
2023-03-12T13:44:37.179Z,14.63
2023-03-12T13:47:41.898Z,14.95
2023-03-12T13:50:14.316Z,14.88
2023-03-12T13:52:40.787Z,15.09
2023-03-12T13:55:17.748Z,15.02
2023-03-12T13:57:47.698Z,14.82
2023-03-12T14:00:39.805Z,14.86
2023-03-12T14:03:18.657Z,14.87
2023-03-12T14:05:50.837Z,14.92
2023-03-12T14:08:24.106Z,14.76
2023-03-12T14:11:15.461Z,14.56
2023-03-12T14:14:11.688Z,14.52
2023-03-12T14:16:50.678Z,14.52
2023-03-12T14:19:25.533Z,14.40
2023-03-12T14:21:56.934Z,14.38
2023-03-12T14:24:32.287Z,14.25
2023-03-12T14:27:01.421Z,14.21
2023-03-12T14:29:40.934Z,14.08
2023-03-12T14:32:17.142Z,13.91
2023-03-12T14:34:49.770Z,13.98
2023-03-12T14:37:20.197Z,14.17
2023-03-12T14:39:51.105Z,14.28
2023-03-12T14:42:47.947Z,14.43
2023-03-12T14:45:18.391Z,14.32
2023-03-12T14:47:53.174Z,14.21
2023-03-12T14:50:23.744Z,14.18
2023-03-12T14:52:50.599Z,14.17
2023-03-12T14:55:22.695Z,13.93
2023-03-12T14:57:49.681Z,13.86
2023-03-12T15:00:27.528Z,13.79
2023-03-12T15:02:57.207Z,13.79
2023-03-12T15:05:24.265Z,13.80
2023-03-12T15:07:56.458Z,13.85
2023-03-12T15:10:30.162Z,13.87
2023-03-12T15:13:00.892Z,13.71
2023-03-12T15:15:41.332Z,13.68
2023-03-12T15:18:15.881Z,13.66
2023-03-12T15:20:42.789Z,13.52
2023-03-12T15:23:12.963Z,13.49
2023-03-12T15:25:39.916Z,13.37
2023-03-12T15:28:15.164Z,13.37
2023-03-12T15:30:42.754Z,13.39
2023-03-12T15:33:24.444Z,13.46
2023-03-12T15:36:07.515Z,13.41
2023-03-12T15:38:38.143Z,13.35
2023-03-12T15:41:09.880Z,13.36
2023-03-12T15:43:37.635Z,13.37
2023-03-12T15:46:06.542Z,13.42
2023-03-12T15:48:38.420Z,13.35
2023-03-12T15:51:15.109Z,13.40
2023-03-12T15:53:41.550Z,13.35
2023-03-12T15:56:10.953Z,13.28
2023-03-12T15:58:40.122Z,13.27
2023-03-12T16:01:18.341Z,13.22
2023-03-12T16:03:45.818Z,13.17
2023-03-12T16:06:18.397Z,13.16
2023-03-12T16:08:48.532Z,13.15
2023-03-12T16:11:20.476Z,13.15
2023-03-12T16:13:49.710Z,13.19
2023-03-12T16:16:16.722Z,13.11
2023-03-12T16:18:43.800Z,13.04
2023-03-12T16:21:10.729Z,13.05
2023-03-12T16:23:37.923Z,13.05
2023-03-12T16:26:05.783Z,13.00
2023-03-12T16:28:35.135Z,12.99
2023-03-12T16:31:10.099Z,12.97
2023-03-12T16:33:36.847Z,12.87
2023-03-12T16:36:03.445Z,12.82
2023-03-12T16:38:29.905Z,12.74
2023-03-12T16:41:01.046Z,12.65
2023-03-12T16:43:29.992Z,12.64
2023-03-12T16:45:57.799Z,12.62
2023-03-12T16:48:25.099Z,12.60
2023-03-12T16:50:56.903Z,12.56
2023-03-12T16:53:23.961Z,12.54
2023-03-12T16:56:02.010Z,12.53
2023-03-12T16:58:29.342Z,12.48
2023-03-12T17:00:56.689Z,12.42
2023-03-12T17:03:33.292Z,12.39
2023-03-12T17:06:01.679Z,12.29
2023-03-12T17:08:28.203Z,12.25
2023-03-12T17:10:56.561Z,12.27
2023-03-12T17:13:30.016Z,12.22
2023-03-12T17:15:56.724Z,12.16
2023-03-12T17:18:23.558Z,12.09
2023-03-12T17:20:51.717Z,11.96
2023-03-12T17:23:22.642Z,12.03
2023-03-12T17:25:49.077Z,11.96
2023-03-12T17:28:16.073Z,11.92
2023-03-12T17:30:42.893Z,11.91
2023-03-12T17:33:16.505Z,11.86
2023-03-12T17:35:43.552Z,11.87
2023-03-12T17:38:11.118Z,11.83
2023-03-12T17:40:42.212Z,11.72
2023-03-12T17:43:08.824Z,11.81
2023-03-12T17:45:36.910Z,11.75
2023-03-12T17:48:03.967Z,11.74
2023-03-12T17:50:30.406Z,11.69
2023-03-12T17:52:56.880Z,11.62
2023-03-12T17:55:23.453Z,11.60
2023-03-12T17:57:50.481Z,11.62
2023-03-12T18:00:17.650Z,11.54
2023-03-12T18:02:44.210Z,11.49
2023-03-12T18:05:11.678Z,11.40
2023-03-12T18:07:40.028Z,11.40
2023-03-12T18:10:09.108Z,11.35
2023-03-12T18:12:37.911Z,11.37
2023-03-12T18:15:06.440Z,11.33
2023-03-12T18:17:32.893Z,11.30
2023-03-12T18:19:59.323Z,11.28
2023-03-12T18:22:25.654Z,11.26
2023-03-12T18:24:52.107Z,11.25
2023-03-12T18:27:20.836Z,11.14
2023-03-12T18:29:48.331Z,11.11
2023-03-12T18:32:14.721Z,11.07
2023-03-12T18:34:42.440Z,11.03
2023-03-12T18:37:09.116Z,11.00
2023-03-12T18:39:35.608Z,11.00
2023-03-12T18:42:02.171Z,10.99
2023-03-12T18:44:28.756Z,11.00
2023-03-12T18:46:55.258Z,10.94
2023-03-12T18:49:21.870Z,10.91
2023-03-12T18:51:54.508Z,10.90
2023-03-12T18:54:24.707Z,10.87
2023-03-12T18:56:54.340Z,10.77
2023-03-12T18:59:23.394Z,10.74
2023-03-12T19:01:49.899Z,10.70
2023-03-12T19:04:18.689Z,10.62
2023-03-12T19:06:51.190Z,10.62
2023-03-12T19:09:18.743Z,10.62
2023-03-12T19:11:47.867Z,10.64
2023-03-12T19:14:16.634Z,10.59
2023-03-12T19:16:43.336Z,10.57
2023-03-12T19:19:10.027Z,10.55
2023-03-12T19:21:36.507Z,10.56
2023-03-12T19:24:02.987Z,10.55
2023-03-12T19:26:29.538Z,10.48
2023-03-12T19:28:56.099Z,10.52
2023-03-12T19:31:22.868Z,10.49
2023-03-12T19:33:49.302Z,10.47
2023-03-12T19:36:15.799Z,10.42
2023-03-12T19:38:42.399Z,10.44
2023-03-12T19:41:11.136Z,10.45
2023-03-12T19:43:38.316Z,10.47
2023-03-12T19:46:05.049Z,10.43
2023-03-12T19:48:31.562Z,10.42
2023-03-12T19:50:58.179Z,10.42
2023-03-12T19:53:27.264Z,10.41
2023-03-12T19:55:56.568Z,10.42
2023-03-12T19:58:25.142Z,10.42
2023-03-12T20:00:51.670Z,10.39
2023-03-12T20:03:18.226Z,10.36
2023-03-12T20:05:45.766Z,10.32
2023-03-12T20:08:12.829Z,10.29
2023-03-12T20:10:39.338Z,10.28
2023-03-12T20:13:05.784Z,10.26
2023-03-12T20:15:32.318Z,10.23
2023-03-12T20:17:58.876Z,10.26
2023-03-12T20:20:25.721Z,10.33
2023-03-12T20:22:52.321Z,10.36
2023-03-12T20:25:18.884Z,10.35
2023-03-12T20:27:47.934Z,10.36
2023-03-12T20:30:16.850Z,10.41
2023-03-12T20:32:43.313Z,10.41
2023-03-12T20:35:10.454Z,10.36
2023-03-12T20:37:39.309Z,10.37
2023-03-12T20:40:08.809Z,10.35
2023-03-12T20:42:35.225Z,10.40
2023-03-12T20:45:04.633Z,10.36
2023-03-12T20:47:34.466Z,10.35
2023-03-12T20:50:03.524Z,10.38
2023-03-12T20:52:30.042Z,10.33
2023-03-12T20:54:56.507Z,10.34
2023-03-12T20:57:23.103Z,10.35
2023-03-12T20:59:49.559Z,10.35
2023-03-12T21:02:16.205Z,10.30
2023-03-12T21:04:45.844Z,10.28
2023-03-12T21:07:14.596Z,10.24
2023-03-12T21:09:41.095Z,10.20
2023-03-12T21:12:07.552Z,10.11
2023-03-12T21:14:34.289Z,10.06
2023-03-12T21:17:00.910Z,10.05
2023-03-12T21:19:30.595Z,9.91
2023-03-12T21:21:57.168Z,9.84
2023-03-12T21:24:25.810Z,9.79
2023-03-12T21:26:52.209Z,9.74
2023-03-12T21:29:18.799Z,9.66
2023-03-12T21:31:45.315Z,9.64
2023-03-12T21:34:11.756Z,9.60
2023-03-12T21:36:38.256Z,9.54
2023-03-12T21:39:04.621Z,9.47
2023-03-12T21:41:31.138Z,9.50
2023-03-12T21:44:01.617Z,9.50
2023-03-12T21:46:30.023Z,9.53
2023-03-12T21:48:56.887Z,9.48
2023-03-12T21:51:26.019Z,9.51
2023-03-12T21:53:59.284Z,9.52
2023-03-12T21:56:30.301Z,9.46
2023-03-12T21:58:57.459Z,9.46
2023-03-12T22:01:24.496Z,9.45
2023-03-12T22:03:53.551Z,9.46
2023-03-12T22:06:24.307Z,9.37
2023-03-12T22:08:52.228Z,9.37
2023-03-12T22:11:21.851Z,9.37
2023-03-12T22:13:48.590Z,9.24
2023-03-12T22:16:15.633Z,9.16
2023-03-12T22:18:44.330Z,9.08
2023-03-12T22:21:18.203Z,9.04
2023-03-12T22:23:47.780Z,8.95
2023-03-12T22:26:14.607Z,8.95
2023-03-12T22:28:41.500Z,8.95
2023-03-12T22:31:09.525Z,8.89
2023-03-12T22:33:36.991Z,8.86
2023-03-12T22:36:11.094Z,8.82
2023-03-12T22:38:38.573Z,8.78
2023-03-12T22:41:23.069Z,8.78
2023-03-12T22:43:51.724Z,8.76
2023-03-12T22:46:19.792Z,8.73
2023-03-12T22:48:47.600Z,8.69
2023-03-12T22:51:19.225Z,8.68
2023-03-12T22:53:45.690Z,8.81
2023-03-12T22:56:14.894Z,8.80
2023-03-12T22:58:41.706Z,8.82
2023-03-12T23:01:11.412Z,8.80
2023-03-12T23:03:39.691Z,8.78
2023-03-12T23:06:16.819Z,8.78
2023-03-12T23:08:45.260Z,8.88
2023-03-12T23:11:14.411Z,8.83
2023-03-12T23:13:44.554Z,9.06
2023-03-12T23:16:19.846Z,8.94
2023-03-12T23:18:47.028Z,9.00
2023-03-12T23:21:20.050Z,8.92
2023-03-12T23:23:49.872Z,8.83
2023-03-12T23:26:22.197Z,8.76
2023-03-12T23:28:48.661Z,8.71
2023-03-12T23:31:16.296Z,8.66
2023-03-12T23:33:43.177Z,8.56
2023-03-12T23:36:15.022Z,8.55
2023-03-12T23:38:49.063Z,8.54
2023-03-12T23:41:21.101Z,8.55
2023-03-12T23:43:47.793Z,8.56
2023-03-12T23:46:16.993Z,8.58
2023-03-12T23:48:45.401Z,8.60
2023-03-12T23:51:16.265Z,8.63
2023-03-12T23:53:45.336Z,8.65
2023-03-12T23:56:16.473Z,8.68
2023-03-12T23:58:43.827Z,8.71
